« Back
NWS Peachtree City, Ga » Text Product » MCN Terminal Aerodrome Forecast


Printer-friendly Version
Current Version              Previous Versions:   1  2  3  4  5  6  7  8  9  

Terminal Aerodrome Forecast

741
FTUS42 KFFC 200900 AAA
TAFMCN
TAF AMD
KMCN 200908Z 2009/2106 26003KT P6SM SCT250
     FM201000 26002KT 6SM BR SCT012
     FM201300 27004KT P6SM BKN020
     FM201500 29007KT P6SM SCT035
     FM201700 28009KT P6SM SCT045 PROB30 2018/2022 4SM -TSRA
      BKN030CB
     FM210200 27003KT P6SM SCT050=



USA.gov is the U.S. government's official web portal to all federal, state and local government web resources and services.